Salisbury, MA (01952)

3:21 PM EST on December 22, 2014 (GMT -0500)
KMASALIS1 | Change Station
CLOSE
Current Station
Personal Weather Station
Location: Salisbury, MA
Elevation: 88 ft
Nearby Weather Stations

Elev 88 ft 42.87 °N, 70.88 °W | Updated 1 second ago

Overcast
Overcast
38.4 °F
Feels Like 35 °F
N
4.0
Wind Variable Wind from North
Gusts 6.0 mph

Today
High -- | Low -- °F
--% Chance of Precip.
Yesterday
High -- | Low -- °F
Precip. -- in
7:11 AM 4:12 PM
New Moon, 1% visible
Pressure 30.35 in
Visibility 10.0 miles
Clouds Overcast 1200 ft
Windchill 35 °F
Dew Point 33 °F
Humidity 82%
Rainfall 0.29 in
Snow Depth Not available.
UV 0 out of 12
Pollen .10 out of 12
Air Quality Not available.
Flu Activity Not available.
METAR KLWM 221954Z 04009KT 10SM OVC012 04/02 A3034 RMK AO2 SLP277 T00390017

More Conditions Fewer Conditions

Pressure 30.35 in
Visibility 10.0 miles
Clouds Overcast 1200 ft
Windchill 35 °F
Dew Point 33 °F
Humidity 82%
Rainfall 0.29 in
Snow Depth Not available.
UV 0 out of 12
Pollen .10 out of 12
Air Quality Not available.
Flu Activity Not available.
METAR KLWM 221954Z 04009KT 10SM OVC012 04/02 A3034 RMK AO2 SLP277 T00390017

More Conditions Fewer Conditions

10-Day Weather Forecast

Almanac

Astronomy

Dec. 22, 2014 Rise Set
Actual Time
Civil Twilight
Nautical Twilight
Astronomical Twilight
Moon
Length of Visible Light
Length of Day
Tomorrow will be .
, % of the Moon is Illuminated

Today's Extremes

State Highs State Lows

Community

WunderPhotos

Upload Photos

1,779,702 photos uploaded!

WunderBlogs® & News

Nearby

Air Quality

  Air Quality AQ Index Pollutant
Not available.

Snow Depth

Station Depth Elevation

Earthquake Activity

City Distance Mag. Time & Date
Minimum magnitude displayed is 2.5.

Coastal Water Temperatures

Place Temperature

Nearby Weather Stations